Time;durP1;ratioP1;P1;durP2;ratioP2;P2;SDS_P1;SDS_P2;PMS_P1;PMS_P2;Temp;Humidity;BMP_temperature;BMP_pressure;BME280_temperature;BME280_humidity;BME280_pressure;Samples;Min_cycle;Max_cycle;Signal;HPM_P1;HPM_P2
2022/06/29 00:03:09;;;;;;;;;;;;;;;21.60;63.56;99671.03;1088041;54;19946;-80
2022/06/29 00:54:28;;;;;;;;;;;;;;;20.86;65.72;99649.19;1089085;46;19943;-79
2022/06/29 01:11:10;;;;;;;;;;;;;;;20.37;69.43;99633.44;1086341;54;21484;-80
2022/06/29 01:12:12;;;;;;;;;;;;;;;20.33;69.46;99637.63;1086825;54;19954;-78
2022/06/29 01:13:16;;;;;;;;;;;;;;;20.34;69.33;99633.88;1087511;38;20298;-79
2022/06/29 01:14:17;;;;;;;;;;;;;;;20.34;69.42;99633.88;1086452;54;19950;-80
2022/06/29 01:15:23;;;;;;;;;;;;;;;20.38;69.13;99637.81;1086593;54;19958;-80
2022/06/29 01:16:24;;;;;;;;;;;;;;;20.42;68.65;99632.78;1086215;54;19977;-79
2022/06/29 01:17:29;;;;;;;;;;;;;;;20.45;68.64;99631.50;1086635;54;19939;-79
2022/06/29 01:18:30;;;;;;;;;;;;;;;20.47;68.35;99635.66;1086261;54;19947;-80
2022/06/29 01:19:34;;;;;;;;;;;;;;;20.43;68.23;99629.00;1086181;54;19947;-80
2022/06/29 01:20:35;;;;;;;;;;;;;;;20.42;68.40;99633.59;1085944;54;19970;-80
2022/06/29 01:21:42;;;;;;;;;;;;;;;20.40;68.48;99632.16;1086501;54;19947;-80
2022/06/29 01:22:46;;;;;;;;;;;;;;;20.36;68.26;99628.19;1086380;54;19969;-79
2022/06/29 01:23:51;;;;;;;;;;;;;;;20.31;69.02;99636.19;1086452;54;19938;-80
2022/06/29 01:24:52;;;;;;;;;;;;;;;20.30;69.03;99635.38;1086339;54;19957;-81
2022/06/29 01:25:56;;;;;;;;;;;;;;;20.32;68.83;99638.66;1086297;54;19939;-79
2022/06/29 01:26:57;;;;;;;;;;;;;;;20.31;69.25;99631.56;1086635;54;19946;-81
2022/06/29 01:28:01;;;;;;;;;;;;;;;20.29;69.20;99628.28;1086520;54;20432;-80
2022/06/29 01:29:02;;;;;;;;;;;;;;;20.29;69.25;99635.56;1086313;54;19935;-82
2022/06/29 01:30:07;;;;;;;;;;;;;;;20.28;68.99;99634.75;1086695;54;19961;-80
2022/06/29 01:32:51;;;;;;;;;;;;;;;20.24;69.40;99636.22;1087555;38;20389;-80
2022/06/29 01:33:52;;;;;;;;;;;;;;;20.19;69.61;99636.06;1088681;54;19958;-79
2022/06/29 01:35:02;;;;;;;;;;;;;;;20.16;69.65;99636.47;1090247;38;20336;-80
2022/06/29 01:36:03;;;;;;;;;;;;;;;20.13;70.27;99631.47;1089054;46;19946;-81
2022/06/29 01:37:09;;;;;;;;;;;;;;;20.13;69.81;99634.19;1089228;54;19959;-77
2022/06/29 01:38:13;;;;;;;;;;;;;;;20.15;69.87;99629.38;1088197;54;19946;-80
2022/06/29 01:39:17;;;;;;;;;;;;;;;20.15;69.86;99626.69;1087905;54;19939;-80
2022/06/29 01:40:24;;;;;;;;;;;;;;;20.21;69.46;99631.25;1087531;54;19954;-80
2022/06/29 01:41:34;;;;;;;;;;;;;;;20.32;69.07;99625.09;1087002;54;19942;-80
2022/06/29 01:42:37;;;;;;;;;;;;;;;20.38;68.70;99626.09;1086247;54;19945;-80
2022/06/29 01:43:41;;;;;;;;;;;;;;;20.45;68.30;99626.88;1087004;54;19938;-79
2022/06/29 01:44:43;;;;;;;;;;;;;;;20.52;67.70;99633.13;1086869;54;19974;-80
2022/06/29 01:45:46;;;;;;;;;;;;;;;20.54;67.43;99632.88;1086929;54;19947;-80
2022/06/29 01:46:47;;;;;;;;;;;;;;;20.50;67.94;99631.69;1086825;54;19953;-78
2022/06/29 01:47:51;;;;;;;;;;;;;;;20.34;68.31;99631.16;1085522;54;19970;-80
2022/06/29 01:48:52;;;;;;;;;;;;;;;20.32;68.26;99635.97;1086075;54;19938;-80
2022/06/29 01:49:58;;;;;;;;;;;;;;;20.31;68.33;99636.19;1085937;54;19939;-79
2022/06/29 01:50:59;;;;;;;;;;;;;;;20.34;68.40;99631.16;1085963;54;19943;-80
2022/06/29 01:52:03;;;;;;;;;;;;;;;20.39;68.06;99634.06;1085992;54;20451;-80
2022/06/29 01:53:04;;;;;;;;;;;;;;;20.48;68.09;99626.47;1085719;54;19954;-81
2022/06/29 01:54:11;;;;;;;;;;;;;;;20.54;67.36;99628.31;1085562;54;19946;-80
2022/06/29 01:55:13;;;;;;;;;;;;;;;20.60;67.24;99628.47;1085786;54;19938;-80
2022/06/29 01:56:16;;;;;;;;;;;;;;;20.61;66.97;99628.22;1085850;54;19947;-80
2022/06/29 01:57:23;;;;;;;;;;;;;;;20.60;66.96;99623.84;1085666;54;19946;-79
2022/06/29 01:58:27;;;;;;;;;;;;;;;20.58;66.73;99623.25;1085495;54;19946;-79
2022/06/29 01:59:30;;;;;;;;;;;;;;;20.60;66.94;99623.03;1085705;54;19958;-81
2022/06/29 02:00:34;;;;;;;;;;;;;;;20.59;66.49;99619.50;1085499;54;19954;-81
2022/06/29 02:01:35;;;;;;;;;;;;;;;20.63;66.62;99628.84;1085656;54;19951;-79
2022/06/29 02:02:39;;;;;;;;;;;;;;;20.63;66.53;99628.03;1086135;54;20019;-81
2022/06/29 02:03:40;;;;;;;;;;;;;;;20.62;66.59;99629.06;1085358;54;20040;-80
2022/06/29 02:04:44;;;;;;;;;;;;;;;20.53;67.25;99625.78;1086420;39;20428;-80
2022/06/29 02:05:46;;;;;;;;;;;;;;;20.49;67.05;99624.59;1086711;54;19946;-80
2022/06/29 02:06:50;;;;;;;;;;;;;;;20.44;67.43;99621.69;1086440;54;19952;-79
2022/06/29 02:07:53;;;;;;;;;;;;;;;20.41;67.68;99629.22;1086351;54;19939;-79
2022/06/29 02:08:57;;;;;;;;;;;;;;;20.45;67.43;99621.47;1086429;54;20507;-80
2022/06/29 02:10:01;;;;;;;;;;;;;;;20.49;66.97;99622.69;1086015;54;19942;-81
2022/06/29 02:11:07;;;;;;;;;;;;;;;20.51;66.82;99619.75;1086142;54;19946;-80
2022/06/29 02:12:08;;;;;;;;;;;;;;;20.53;66.55;99618.50;1085543;54;20040;-79
2022/06/29 02:13:12;;;;;;;;;;;;;;;20.56;66.46;99619.94;1084863;54;20464;-79
2022/06/29 02:36:13;;;;;;;;;;;;;;;20.78;65.74;99611.44;1083319;39;20365;-78
2022/06/29 02:37:15;;;;;;;;;;;;;;;20.75;65.90;99603.72;1084984;54;19999;-78
2022/06/29 02:40:03;;;;;;;;;;;;;;;20.73;66.16;99604.78;1088713;54;19922;-78
2022/06/29 02:41:06;;;;;;;;;;;;;;;20.71;66.29;99606.84;1088619;54;19923;-78
2022/06/29 02:42:19;;;;;;;;;;;;;;;20.72;66.12;99604.97;1089824;46;20002;-78
2022/06/29 02:43:26;;;;;;;;;;;;;;;20.72;66.13;99616.66;1088269;54;19957;-79
2022/06/29 02:44:30;;;;;;;;;;;;;;;20.75;65.97;99609.16;1090396;46;19997;-78
2022/06/29 02:45:41;;;;;;;;;;;;;;;20.67;66.90;99612.94;1091226;46;19942;-78
2022/06/29 02:46:44;;;;;;;;;;;;;;;20.57;67.40;99618.88;1090848;39;20156;-77
2022/06/29 02:47:46;;;;;;;;;;;;;;;20.47;68.11;99607.69;1087746;54;19949;-77
2022/06/29 02:48:49;;;;;;;;;;;;;;;20.42;68.49;99617.31;1086832;54;19961;-78
2022/06/29 02:49:50;;;;;;;;;;;;;;;20.38;68.82;99620.69;1085334;54;19974;-79
2022/06/29 02:50:54;;;;;;;;;;;;;;;20.33;68.91;99618.63;1085117;54;19950;-79
2022/06/29 02:51:58;;;;;;;;;;;;;;;20.22;69.61;99619.31;1085081;54;19953;-79
2022/06/29 02:53:02;;;;;;;;;;;;;;;20.19;69.97;99622.50;1085006;54;19946;-79
2022/06/29 02:54:03;;;;;;;;;;;;;;;20.16;69.66;99617.50;1085423;54;19951;-79
2022/06/29 02:55:07;;;;;;;;;;;;;;;20.09;70.01;99612.09;1086564;39;20341;-79
2022/06/29 02:56:09;;;;;;;;;;;;;;;19.95;70.93;99616.78;1085668;54;19946;-79
2022/06/29 02:57:16;;;;;;;;;;;;;;;19.85;71.16;99611.81;1085633;54;19968;-79
2022/06/29 02:58:17;;;;;;;;;;;;;;;19.82;71.55;99611.41;1086354;54;19955;-79
2022/06/29 02:59:34;;;;;;;;;;;;;;;19.83;71.34;99611.19;1085156;54;19977;-79
2022/06/29 03:00:35;;;;;;;;;;;;;;;19.80;71.68;99608.88;1085815;54;19951;-78
2022/06/29 03:01:39;;;;;;;;;;;;;;;19.74;71.26;99607.03;1086049;54;20485;-79
2022/06/29 03:02:41;;;;;;;;;;;;;;;19.72;71.70;99617.28;1085943;54;19997;-78
2022/06/29 03:03:45;;;;;;;;;;;;;;;19.74;71.72;99604.34;1085897;54;20757;-79
2022/06/29 03:04:46;;;;;;;;;;;;;;;19.71;71.72;99604.75;1086391;54;19946;-78
2022/06/29 03:05:50;;;;;;;;;;;;;;;19.74;71.45;99610.56;1086299;54;19951;-79
2022/06/29 03:06:51;;;;;;;;;;;;;;;19.74;71.42;99598.91;1085609;54;19957;-78
2022/06/29 03:07:57;;;;;;;;;;;;;;;19.74;71.28;99602.44;1086018;54;19947;-77
2022/06/29 03:08:58;;;;;;;;;;;;;;;19.78;71.50;99605.56;1085610;54;19950;-78
2022/06/29 03:10:02;;;;;;;;;;;;;;;19.78;71.36;99600.97;1085300;54;19957;-78
2022/06/29 03:11:03;;;;;;;;;;;;;;;19.80;71.10;99600.75;1085829;54;19946;-79
2022/06/29 03:12:07;;;;;;;;;;;;;;;19.82;71.30;99600.56;1085524;39;20381;-78
2022/06/29 03:13:08;;;;;;;;;;;;;;;19.85;71.09;99595.56;1085819;54;19946;-77
2022/06/29 03:14:12;;;;;;;;;;;;;;;19.92;70.66;99600.94;1085812;54;19975;-77
2022/06/29 03:15:13;;;;;;;;;;;;;;;19.97;70.44;99603.00;1086254;54;19958;-78
2022/06/29 03:16:17;;;;;;;;;;;;;;;19.91;70.89;99599.28;1086243;54;19953;-78
2022/06/29 03:17:18;;;;;;;;;;;;;;;19.92;70.83;99606.38;1086066;54;19950;-78
2022/06/29 03:18:23;;;;;;;;;;;;;;;19.92;71.00;99601.78;1086076;54;19962;-78
2022/06/29 03:19:24;;;;;;;;;;;;;;;19.98;70.55;99600.06;1085768;54;19946;-79
2022/06/29 03:20:28;;;;;;;;;;;;;;;20.01;70.25;99598.78;1085726;54;20057;-77
2022/06/29 03:21:30;;;;;;;;;;;;;;;20.08;70.24;99588.72;1085962;54;19966;-78
2022/06/29 03:22:33;;;;;;;;;;;;;;;20.15;69.63;99602.25;1086070;54;20436;-79
2022/06/29 03:23:37;;;;;;;;;;;;;;;20.20;69.36;99592.41;1085666;54;19946;-78
2022/06/29 03:24:41;;;;;;;;;;;;;;;20.23;69.27;99591.13;1085467;54;19946;-78
2022/06/29 03:25:42;;;;;;;;;;;;;;;20.21;69.27;99593.25;1086254;54;19947;-78
2022/06/29 03:26:46;;;;;;;;;;;;;;;20.24;69.52;99593.66;1086135;54;19947;-78
2022/06/29 03:27:47;;;;;;;;;;;;;;;20.26;69.32;99585.28;1085731;54;19946;-78
2022/06/29 03:28:52;;;;;;;;;;;;;;;20.31;69.26;99599.00;1085259;54;20010;-78
2022/06/29 03:29:53;;;;;;;;;;;;;;;20.33;69.14;99599.63;1085693;54;19952;-79
2022/06/29 03:30:57;;;;;;;;;;;;;;;20.34;69.10;99601.28;1085649;54;19973;-79
2022/06/29 03:31:58;;;;;;;;;;;;;;;20.27;69.81;99604.03;1086152;39;20369;-79
2022/06/29 03:33:02;;;;;;;;;;;;;;;20.33;69.24;99596.09;1085831;54;19946;-78
2022/06/29 03:34:03;;;;;;;;;;;;;;;20.33;69.05;99593.38;1085427;54;19950;-79
2022/06/29 03:35:08;;;;;;;;;;;;;;;20.33;68.74;99596.91;1085832;54;19950;-78
2022/06/29 03:36:09;;;;;;;;;;;;;;;20.35;69.05;99594.00;1087100;39;20380;-78
2022/06/29 03:37:13;;;;;;;;;;;;;;;20.32;68.90;99589.81;1086024;54;19945;-78
2022/06/29 03:38:15;;;;;;;;;;;;;;;20.32;69.31;99581.69;1085686;54;19938;-78
2022/06/29 03:39:21;;;;;;;;;;;;;;;20.33;68.82;99590.66;1085821;54;19946;-79
2022/06/29 03:40:22;;;;;;;;;;;;;;;20.33;68.91;99582.53;1085496;54;19975;-81
2022/06/29 03:41:26;;;;;;;;;;;;;;;20.30;69.08;99586.53;1085467;54;19953;-79
2022/06/29 03:42:27;;;;;;;;;;;;;;;20.27;68.97;99584.22;1085933;54;19953;-78
2022/06/29 03:43:31;;;;;;;;;;;;;;;20.28;68.85;99580.47;1085815;54;19943;-78
2022/06/29 03:44:32;;;;;;;;;;;;;;;20.26;69.02;99579.84;1085289;54;19950;-78
2022/06/29 03:45:36;;;;;;;;;;;;;;;20.25;69.00;99584.47;1085004;54;19972;-79
2022/06/29 03:48:53;;;;;;;;;;;;;;;20.16;69.59;99587.66;1087044;54;19949;-85
2022/06/29 03:49:54;;;;;;;;;;;;;;;20.13;69.77;99582.66;1087892;54;19943;-84
2022/06/29 03:50:58;;;;;;;;;;;;;;;20.08;70.26;99588.72;1087797;54;19950;-82
2022/06/29 03:51:59;;;;;;;;;;;;;;;20.00;70.88;99594.41;1087918;54;19942;-84
2022/06/29 03:53:03;;;;;;;;;;;;;;;20.02;70.58;99590.47;1087902;54;19983;-87
2022/06/29 03:54:04;;;;;;;;;;;;;;;19.99;70.60;99590.88;1087760;54;19942;-83
2022/06/29 03:55:11;;;;;;;;;;;;;;;19.87;71.06;99590.75;1087618;54;19942;-85
2022/06/29 03:56:12;;;;;;;;;;;;;;;19.77;71.62;99595.78;1088259;46;19943;-79
2022/06/29 03:57:16;;;;;;;;;;;;;;;19.68;72.14;99595.19;1087799;54;19942;-79
2022/06/29 03:58:17;;;;;;;;;;;;;;;19.69;72.11;99591.44;1087806;54;19951;-82
2022/06/29 03:59:21;;;;;;;;;;;;;;;19.67;72.04;99598.94;1087519;54;19943;-81
2022/06/29 04:00:22;;;;;;;;;;;;;;;19.59;72.36;99599.19;1087789;54;19950;-77
2022/06/29 04:01:26;;;;;;;;;;;;;;;19.51;73.07;99596.72;1087651;54;19949;-81
2022/06/29 04:02:27;;;;;;;;;;;;;;;19.51;72.90;99591.28;1087592;54;19965;-80
2022/06/29 04:03:30;;;;;;;;;;;;;;;19.48;73.23;99601.50;1089223;39;20467;-81
2022/06/29 04:04:31;;;;;;;;;;;;;;;19.45;73.66;99593.84;1087683;54;19961;-81
2022/06/29 04:05:35;;;;;;;;;;;;;;;19.40;74.05;99592.81;1087849;39;20597;-79
2022/06/29 04:06:36;;;;;;;;;;;;;;;19.37;74.70;99593.22;1087393;54;19942;-80
2022/06/29 04:07:40;;;;;;;;;;;;;;;19.36;74.82;99596.97;1090233;39;20499;-82
2022/06/29 04:08:41;;;;;;;;;;;;;;;19.33;75.23;99595.53;1087795;54;20057;-79
2022/06/29 04:09:45;;;;;;;;;;;;;;;19.38;74.97;99594.88;1087571;54;19949;-81
2022/06/29 04:10:48;;;;;;;;;;;;;;;19.40;74.57;99590.91;1087553;54;19942;-81
2022/06/29 04:11:52;;;;;;;;;;;;;;;19.44;74.92;99594.88;1087436;54;19942;-79
2022/06/29 04:12:53;;;;;;;;;;;;;;;19.45;74.42;99596.53;1087284;54;19943;-80
2022/06/29 04:13:57;;;;;;;;;;;;;;;19.40;75.10;99590.91;1087691;54;19943;-80
2022/06/29 04:14:59;;;;;;;;;;;;;;;19.38;75.01;99601.13;1087640;54;20575;-82
2022/06/29 04:16:02;;;;;;;;;;;;;;;19.40;75.31;99599.03;1087441;54;19943;-80
2022/06/29 04:17:03;;;;;;;;;;;;;;;19.40;75.16;99599.03;1087311;54;19943;-80
2022/06/29 04:18:07;;;;;;;;;;;;;;;19.43;75.04;99598.63;1087847;54;19943;-85
2022/06/29 04:19:08;;;;;;;;;;;;;;;19.44;75.15;99597.59;1087749;54;19949;-85
2022/06/29 04:21:05;;;;;;;;;;;;;;;19.45;74.92;99595.69;1087784;54;19991;-83
2022/06/29 04:21:34;;;;;;;;;;;;;;;19.32;75.28;99586.56;1087711;47;19942;-85
2022/06/29 04:22:38;;;;;;;;;;;;;;;19.31;75.28;99593.06;1087591;54;19998;-85
2022/06/29 04:23:39;;;;;;;;;;;;;;;19.29;75.62;99599.69;1087211;54;19946;-83
2022/06/29 04:24:43;;;;;;;;;;;;;;;19.33;75.33;99603.66;1087695;54;19950;-83
2022/06/29 04:25:44;;;;;;;;;;;;;;;19.26;75.57;99597.44;1088866;46;19942;-86
2022/06/29 04:26:50;;;;;;;;;;;;;;;19.22;75.80;99596.19;1088341;39;20503;-83
2022/06/29 04:27:51;;;;;;;;;;;;;;;19.22;75.79;99602.47;1087517;54;19942;-86
2022/06/29 04:28:55;;;;;;;;;;;;;;;19.22;76.17;99601.59;1087826;54;19983;-87
2022/06/29 04:29:59;;;;;;;;;;;;;;;19.22;75.99;99601.59;1088020;54;19949;-87
2022/06/29 04:31:01;;;;;;;;;;;;;;;19.21;76.43;99592.66;1088254;54;19938;-85
2022/06/29 04:32:05;;;;;;;;;;;;;;;19.24;75.87;99596.81;1088261;54;19943;-86
2022/06/29 04:33:07;;;;;;;;;;;;;;;19.20;76.16;99598.28;1088289;54;19943;-87
2022/06/29 04:34:11;;;;;;;;;;;;;;;19.18;76.17;99601.19;1088280;54;19949;-84
2022/06/29 04:35:12;;;;;;;;;;;;;;;19.25;75.92;99598.47;1088260;54;19966;-85
2022/06/29 04:36:17;;;;;;;;;;;;;;;19.32;75.87;99589.25;1088255;54;19943;-85
2022/06/29 04:37:21;;;;;;;;;;;;;;;19.43;75.28;99592.34;1088162;54;19947;-84
2022/06/29 04:38:22;;;;;;;;;;;;;;;19.35;75.60;99589.88;1088207;54;19968;-84
2022/06/29 04:39:26;;;;;;;;;;;;;;;19.30;75.91;99590.53;1088228;54;20825;-86
2022/06/29 04:40:27;;;;;;;;;;;;;;;19.24;76.20;99604.94;1088267;54;20547;-84
2022/06/29 04:41:31;;;;;;;;;;;;;;;19.24;76.16;99600.34;1088206;54;19943;-84
2022/06/29 04:42:35;;;;;;;;;;;;;;;19.29;76.17;99602.41;1088230;54;19931;-83
2022/06/29 04:43:38;;;;;;;;;;;;;;;19.23;76.38;99592.44;1088112;54;19998;-82
2022/06/29 04:44:39;;;;;;;;;;;;;;;19.32;75.52;99596.56;1088406;47;20790;-85
2022/06/29 04:46:59;;;;;;;;;;;;;;;19.51;74.72;99599.44;1087748;54;19943;-83
2022/06/29 04:48:01;;;;;;;;;;;;;;;19.56;74.58;99597.75;1088020;54;19942;-86
2022/06/29 04:49:05;;;;;;;;;;;;;;;19.55;74.22;99595.25;1087952;54;20021;-87
2022/06/29 04:50:07;;;;;;;;;;;;;;;19.50;74.21;99601.31;1088194;54;19930;-86
2022/06/29 04:51:10;;;;;;;;;;;;;;;19.52;74.57;99598.38;1088210;54;19950;-83
2022/06/29 04:52:14;;;;;;;;;;;;;;;19.64;73.67;99602.09;1088205;54;19952;-83
2022/06/29 04:53:17;;;;;;;;;;;;;;;19.69;73.23;99596.84;1093605;31;20680;-87
2022/06/29 04:54:24;;;;;;;;;;;;;;;19.75;72.78;99595.16;1088214;54;19943;-81
2022/06/29 04:55:28;;;;;;;;;;;;;;;19.79;72.44;99597.22;1088197;54;19994;-81
2022/06/29 04:56:32;;;;;;;;;;;;;;;19.84;72.52;99595.75;1088239;54;19942;-79
2022/06/29 04:57:36;;;;;;;;;;;;;;;19.86;72.00;99590.94;1088154;54;19942;-80
2022/06/29 04:58:40;;;;;;;;;;;;;;;19.86;72.15;99589.09;1088227;54;19943;-81
2022/06/29 04:59:41;;;;;;;;;;;;;;;19.87;71.93;99587.19;1088260;54;19949;-87
2022/06/29 05:00:44;;;;;;;;;;;;;;;19.91;72.04;99586.53;1090490;47;19931;-85
2022/06/29 05:01:49;;;;;;;;;;;;;;;19.94;71.99;99586.13;1088546;54;19939;-88
2022/06/29 05:02:51;;;;;;;;;;;;;;;19.91;72.10;99581.13;1088431;54;19942;-87
2022/06/29 05:03:55;;;;;;;;;;;;;;;19.97;71.56;99581.31;1089343;47;19938;-87
2022/06/29 05:04:56;;;;;;;;;;;;;;;19.97;71.94;99595.69;1089494;47;19927;-86
2022/06/29 05:06:00;;;;;;;;;;;;;;;19.87;71.97;99587.19;1090315;47;19941;-87
2022/06/29 05:07:03;;;;;;;;;;;;;;;19.91;72.00;99594.69;1088187;54;19949;-87
2022/06/29 05:08:07;;;;;;;;;;;;;;;19.88;72.06;99591.56;1088713;47;19930;-84
2022/06/29 05:09:10;;;;;;;;;;;;;;;19.75;72.55;99595.97;1089422;47;20669;-87
2022/06/29 05:10:14;;;;;;;;;;;;;;;19.71;72.79;99594.75;1088212;54;19990;-86
2022/06/29 05:11:15;;;;;;;;;;;;;;;19.78;72.49;99584.69;1088965;47;19927;-86
2022/06/29 05:12:20;;;;;;;;;;;;;;;19.78;72.36;99589.31;1087839;54;20531;-82
2022/06/29 05:13:24;;;;;;;;;;;;;;;19.80;72.38;99592.63;1087776;54;20676;-86
2022/06/29 05:14:27;;;;;;;;;;;;;;;19.84;72.03;99591.16;1087900;54;19943;-89
2022/06/29 05:15:29;;;;;;;;;;;;;;;19.77;72.45;99593.88;1087920;54;19927;-84
2022/06/29 05:16:32;;;;;;;;;;;;;;;19.74;72.84;99594.31;1087969;54;19954;-85
2022/06/29 05:17:36;;;;;;;;;;;;;;;19.78;72.52;99592.84;1088121;54;19950;-86
2022/06/29 05:18:40;;;;;;;;;;;;;;;19.91;71.74;99599.28;1088120;54;19939;-87
2022/06/29 05:19:41;;;;;;;;;;;;;;;19.82;72.63;99600.56;1088085;54;20650;-84
2022/06/29 05:20:45;;;;;;;;;;;;;;;19.91;72.00;99594.69;1087837;54;19950;-86
2022/06/29 05:21:49;;;;;;;;;;;;;;;19.93;71.90;99602.63;1087705;54;19950;-85
2022/06/29 05:22:50;;;;;;;;;;;;;;;19.90;72.26;99601.16;1087990;54;19950;-85
2022/06/29 05:23:54;;;;;;;;;;;;;;;19.86;72.42;99607.22;1088504;54;19927;-87
2022/06/29 05:24:55;;;;;;;;;;;;;;;19.95;71.97;99605.91;1088589;54;19934;-85
2022/06/29 05:25:59;;;;;;;;;;;;;;;20.01;71.97;99601.50;1088616;54;19943;-85
2022/06/29 05:27:03;;;;;;;;;;;;;;;20.10;71.29;99598.34;1088564;54;19950;-85
2022/06/29 05:28:04;;;;;;;;;;;;;;;20.19;71.12;99600.78;1088547;54;19943;-86
2022/06/29 05:29:11;;;;;;;;;;;;;;;20.24;70.84;99593.66;1088534;54;19933;-83
2022/06/29 05:30:13;;;;;;;;;;;;;;;20.31;70.65;99599.00;1088498;54;20015;-87
2022/06/29 05:31:17;;;;;;;;;;;;;;;20.32;70.20;99594.44;1089482;46;20021;-85
2022/06/29 05:32:18;;;;;;;;;;;;;;;20.34;70.08;99595.88;1091916;46;19958;-86
2022/06/29 05:33:22;;;;;;;;;;;;;;;20.44;69.81;99602.69;1089748;46;19934;-85
2022/06/29 05:34:24;;;;;;;;;;;;;;;20.45;69.64;99598.91;1088474;54;19979;-87
2022/06/29 05:35:29;;;;;;;;;;;;;;;20.49;69.32;99605.59;1088543;54;19975;-87
2022/06/29 05:36:30;;;;;;;;;;;;;;;20.55;69.30;99601.97;1088491;54;20006;-88
2022/06/29 05:37:34;;;;;;;;;;;;;;;20.62;69.07;99602.75;1088410;54;19934;-86
2022/06/29 05:38:38;;;;;;;;;;;;;;;20.65;68.79;99610.47;1088067;54;19967;-80
2022/06/29 05:39:39;;;;;;;;;;;;;;;20.56;68.67;99603.63;1088200;54;19949;-87
2022/06/29 05:40:44;;;;;;;;;;;;;;;20.45;69.17;99599.75;1088368;54;19942;-88
2022/06/29 05:41:45;;;;;;;;;;;;;;;20.48;69.30;99599.31;1088923;46;19966;-87
2022/06/29 05:42:48;;;;;;;;;;;;;;;20.59;68.82;99605.94;1088554;54;19933;-88
2022/06/29 05:43:52;;;;;;;;;;;;;;;20.63;67.36;99600.88;1088513;54;19934;-87
2022/06/29 05:44:56;;;;;;;;;;;;;;;20.64;67.14;99597.13;1088485;54;19950;-85
2022/06/29 05:46:00;;;;;;;;;;;;;;;20.62;65.58;99597.31;1094095;39;20506;-85
2022/06/29 05:47:01;;;;;;;;;;;;;;;20.59;65.67;99595.06;1088406;54;20721;-87
2022/06/29 05:48:05;;;;;;;;;;;;;;;20.63;65.97;99606.31;1088890;39;20614;-87
2022/06/29 05:49:08;;;;;;;;;;;;;;;20.72;65.77;99602.25;1088487;54;19934;-88
2022/06/29 05:50:10;;;;;;;;;;;;;;;20.73;65.52;99602.06;1088592;54;19927;-83
2022/06/29 05:51:14;;;;;;;;;;;;;;;20.71;65.23;99598.69;1088433;54;20651;-80
2022/06/29 05:52:15;;;;;;;;;;;;;;;20.76;65.48;99597.25;1088441;54;19966;-80
2022/06/29 05:53:18;;;;;;;;;;;;;;;20.78;65.31;99598.69;1088460;54;20515;-80
2022/06/29 05:54:20;;;;;;;;;;;;;;;20.85;65.16;99595.91;1088918;46;19950;-80
2022/06/29 05:55:23;;;;;;;;;;;;;;;20.90;64.55;99606.09;1088436;54;19949;-83
2022/06/29 05:56:40;;;;;;;;;;;;;;;20.90;64.97;99597.94;1088128;54;19934;-88
2022/06/29 05:57:41;;;;;;;;;;;;;;;20.96;64.29;99603.31;1087943;54;19966;-85
2022/06/29 05:58:46;;;;;;;;;;;;;;;21.02;64.36;99602.41;1088223;54;19934;-85
2022/06/29 05:59:47;;;;;;;;;;;;;;;21.06;64.33;99602.78;1088872;46;19954;-85
2022/06/29 06:00:53;;;;;;;;;;;;;;;21.09;64.10;99605.06;1088475;54;19927;-85
2022/06/29 06:01:54;;;;;;;;;;;;;;;21.11;64.10;99599.41;1089030;46;19923;-79
2022/06/29 06:02:58;;;;;;;;;;;;;;;21.15;63.79;99598.72;1088035;54;19942;-80
2022/06/29 06:04:02;;;;;;;;;;;;;;;21.19;63.84;99599.94;1087730;46;20975;-80
2022/06/29 06:05:03;;;;;;;;;;;;;;;21.25;63.57;99597.38;1089211;46;19976;-79
2022/06/29 06:06:07;;;;;;;;;;;;;;;21.24;63.71;99601.13;1087967;54;19923;-80
2022/06/29 06:07:08;;;;;;;;;;;;;;;21.25;63.41;99594.66;1088463;46;19958;-80
2022/06/29 06:08:13;;;;;;;;;;;;;;;21.30;63.51;99592.91;1088454;54;19942;-79
2022/06/29 06:09:14;;;;;;;;;;;;;;;21.34;63.43;99599.56;1088408;54;19972;-79
2022/06/29 06:10:18;;;;;;;;;;;;;;;21.34;63.30;99596.84;1088426;54;19982;-80
2022/06/29 06:11:19;;;;;;;;;;;;;;;21.41;62.87;99598.66;1088399;54;20536;-81
2022/06/29 06:12:23;;;;;;;;;;;;;;;21.39;62.59;99598.06;1088449;54;19954;-79
2022/06/29 06:13:24;;;;;;;;;;;;;;;21.32;62.73;99596.25;1088305;54;19943;-79
2022/06/29 06:14:27;;;;;;;;;;;;;;;21.29;62.66;99590.44;1087936;54;19994;-79
2022/06/29 06:15:29;;;;;;;;;;;;;;;21.34;62.78;99596.84;1088159;46;20623;-80
2022/06/29 06:16:35;;;;;;;;;;;;;;;21.37;62.21;99594.72;1088243;54;19990;-81
2022/06/29 06:17:36;;;;;;;;;;;;;;;21.37;62.46;99594.72;1088302;54;19950;-80
2022/06/29 06:18:40;;;;;;;;;;;;;;;21.31;62.88;99601.88;1088340;54;19943;-82
2022/06/29 06:19:41;;;;;;;;;;;;;;;21.33;62.66;99594.34;1088862;46;20618;-82
2022/06/29 06:20:45;;;;;;;;;;;;;;;21.39;62.69;99592.63;1088470;54;19943;-81
2022/06/29 06:21:47;;;;;;;;;;;;;;;21.41;62.37;99595.94;1089252;46;19930;-80
2022/06/29 06:22:50;;;;;;;;;;;;;;;21.35;62.70;99593.06;1088418;54;19939;-80
2022/06/29 06:23:51;;;;;;;;;;;;;;;21.45;62.69;99594.41;1088352;54;19942;-79
2022/06/29 06:24:55;;;;;;;;;;;;;;;21.52;62.70;99597.91;1090163;46;19939;-84
2022/06/29 06:25:59;;;;;;;;;;;;;;;21.56;62.98;99588.22;1090827;46;19943;-84
2022/06/29 06:27:06;;;;;;;;;;;;;;;21.61;62.94;99593.84;1088408;54;19942;-85
2022/06/29 06:28:10;;;;;;;;;;;;;;;21.64;63.23;99596.09;1088470;54;19950;-85
2022/06/29 06:29:11;;;;;;;;;;;;;;;21.66;63.27;99598.59;1088358;54;19962;-83
2022/06/29 06:30:15;;;;;;;;;;;;;;;21.70;62.86;99594.34;1088814;46;20583;-84
2022/06/29 06:31:16;;;;;;;;;;;;;;;21.53;63.65;99588.69;1088248;54;19965;-85
2022/06/29 06:32:23;;;;;;;;;;;;;;;21.49;63.77;99593.72;1087973;54;19949;-82
2022/06/29 06:33:24;;;;;;;;;;;;;;;21.57;63.75;99589.88;1087984;54;19943;-84
2022/06/29 06:34:28;;;;;;;;;;;;;;;21.60;63.67;99594.91;1088290;54;20634;-85
2022/06/29 06:35:30;;;;;;;;;;;;;;;21.69;63.29;99597.31;1088419;54;19938;-83
2022/06/29 06:36:34;;;;;;;;;;;;;;;21.75;63.15;99594.50;1088412;54;19991;-85
2022/06/29 06:37:35;;;;;;;;;;;;;;;21.68;63.43;99598.34;1088368;54;19927;-85
2022/06/29 06:38:39;;;;;;;;;;;;;;;21.64;63.41;99598.81;1088321;54;20591;-83
2022/06/29 06:41:21;;;;;;;;;;;;;;;21.65;63.53;99602.38;1088427;54;19942;-84
2022/06/29 06:42:19;;;;;;;;;;;;;;;21.81;63.15;99595.47;1088386;54;19949;-84
2022/06/29 06:43:20;;;;;;;;;;;;;;;21.90;62.93;99594.09;1088322;54;19942;-85
2022/06/29 06:44:24;;;;;;;;;;;;;;;22.02;62.58;99596.00;1088356;54;19942;-84
2022/06/29 06:45:25;;;;;;;;;;;;;;;22.11;62.32;99598.19;1088369;54;19947;-84
2022/06/29 06:46:30;;;;;;;;;;;;;;;22.16;62.21;99600.22;1088439;54;19942;-86
2022/06/29 06:47:34;;;;;;;;;;;;;;;22.18;61.89;99598.09;1088366;54;19927;-85
2022/06/29 06:48:38;;;;;;;;;;;;;;;22.25;61.90;99601.53;1088343;54;20003;-83
2022/06/29 06:49:41;;;;;;;;;;;;;;;22.34;61.78;99598.47;1088517;46;19942;-82
2022/06/29 06:50:42;;;;;;;;;;;;;;;22.33;61.33;99602.25;1087949;54;19946;-85
2022/06/29 06:51:47;;;;;;;;;;;;;;;22.32;61.42;99590.56;1088072;54;19942;-85
2022/06/29 06:53:29;;;;;;;;;;;;;;;22.16;62.08;99588.47;1093987;39;20561;-85
2022/06/29 06:56:47;;;;;;;;;;;;;;;22.21;61.81;99588.63;1087979;54;19968;-84
2022/06/29 06:57:48;;;;;;;;;;;;;;;22.26;61.31;99595.03;1087952;54;19942;-86
2022/06/29 06:58:52;;;;;;;;;;;;;;;22.21;61.57;99594.88;1088021;54;19939;-85
2022/06/29 06:59:53;;;;;;;;;;;;;;;22.35;61.59;99594.69;1089676;46;20023;-85
2022/06/29 07:00:57;;;;;;;;;;;;;;;22.42;61.15;99595.44;1088090;54;20821;-84
2022/06/29 07:02:06;;;;;;;;;;;;;;;22.43;60.40;99592.47;1088178;54;19942;-87
2022/06/29 07:03:10;;;;;;;;;;;;;;;22.49;60.75;99590.72;1094258;39;20760;-87
2022/06/29 07:04:13;;;;;;;;;;;;;;;22.56;60.09;99602.34;1088137;54;19943;-86
2022/06/29 07:05:15;;;;;;;;;;;;;;;22.62;60.18;99599.72;1088156;54;19975;-86
2022/06/29 07:06:19;;;;;;;;;;;;;;;22.58;59.89;99591.22;1089068;39;20656;-85
2022/06/29 07:07:22;;;;;;;;;;;;;;;22.47;60.86;99598.31;1088531;46;19939;-85
2022/06/29 07:08:24;;;;;;;;;;;;;;;22.50;60.86;99597.00;1087951;54;19950;-86
2022/06/29 07:09:28;;;;;;;;;;;;;;;22.70;60.24;99602.09;1088134;54;19967;-85
2022/06/29 07:10:29;;;;;;;;;;;;;;;22.83;60.32;99587.41;1088508;54;19973;-86
2022/06/29 07:11:33;;;;;;;;;;;;;;;22.98;59.69;99586.94;1088451;54;19926;-84